Latest Weather Observations for Condobolin Airport

IDN60801

Issued at 2:02 pm EST Friday 29 April 2016 (issued every 30 minutes, with the page automatically refreshed every 10 minutes)

About weather observations | Map of weather stations | Latest weather observations for NSW | Other Formats
Station Details ID: 050137 Name: CONDOBOLIN AIRPORT AWS Lat: -33.07 Lon: 147.21 Height: 192.6 m
Data from the previous 72 hours. | See also: Recent months at Condobolin Airport
Date/Time
EST
Temp
°C
App
Temp
°C
Dew
Point
Rel
Hum
%
Delta-T
°C
Wind Press
QNH
hPa
Press
MSL
hPa
Rain
since 9 am
mm
Dir
 
Spd
km/h
Gust
km/h
Spd
kts
Gust
kts
29/02:00pm 26.1 21.9 13.6 46 7.4 N 28 39 15 21 1016.6 1016.2 0.0
29/01:30pm 26.6 21.8 13.0 43 8.0 N 30 39 16 21 1016.4 1016.0 0.0
29/01:15pm 26.8 22.1 13.2 43 8.0 N 30 48 16 26 1016.4 1016.0 0.0
29/01:00pm 26.7 22.4 13.1 43 8.0 N 28 39 15 21 1016.6 1016.2 0.0
29/12:30pm 25.7 21.1 13.5 46 7.2 NNE 30 41 16 22 1017.3 1017.0 0.0
29/12:00pm 25.1 19.7 12.7 46 7.2 NNE 33 46 18 25 1017.8 1017.5 0.0
29/11:30am 24.1 18.9 12.7 49 6.6 NNE 32 39 17 21 1018.5 1018.2 0.0
29/11:00am 23.7 18.8 12.4 49 6.5 NNE 30 43 16 23 1019.1 1018.8 0.0
29/10:30am 23.1 17.0 11.8 49 6.4 N 35 48 19 26 1019.6 1019.2 0.0
29/10:00am 24.1 17.0 12.1 47 6.9 N 41 50 22 27 1019.9 1019.5 0.0
29/09:30am 22.4 15.9 11.8 51 6.0 N 37 48 20 26 1020.0 1019.6 0.0
29/09:13am 22.1 15.6 11.8 52 5.8 N 37 56 20 30 1020.0 1019.6 0.0
29/09:00am 21.9 16.1 11.6 52 5.8 N 33 46 18 25 1020.3 1019.9 0.0
29/08:30am 21.3 17.9 11.3 53 5.6 NNE 20 30 11 16 1020.0 1019.6 0.0
29/08:00am 20.0 16.5 10.1 53 5.4 NNE 19 26 10 14 1020.2 1019.8 0.0
29/07:30am 19.5 15.7 9.1 51 5.5 NE 19 28 10 15 1019.9 1019.5 0.0
29/07:00am 19.3 15.5 7.7 47 6.0 NE 17 24 9 13 1019.8 1019.4 0.0
29/06:30am 17.0 14.5 8.2 56 4.5 E 11 13 6 7 1020.1 1019.7 0.0
29/06:00am 17.3 14.7 7.6 53 4.9 E 11 15 6 8 1020.2 1019.8 0.0
29/05:30am 18.2 15.2 7.9 51 5.3 ENE 13 15 7 8 1019.9 1019.5 0.0
29/05:00am 18.7 15.7 7.8 49 5.6 NE 13 15 7 8 1019.7 1019.3 0.0
29/04:30am 18.9 16.0 8.0 49 5.6 NE 13 17 7 9 1019.7 1019.3 0.0
29/04:00am 19.8 16.2 8.2 47 6.1 NNE 17 20 9 11 1019.3 1019.0 0.0
29/03:30am 19.6 16.0 8.3 48 5.9 NNE 17 20 9 11 1019.3 1019.0 0.0
29/03:00am 20.0 16.1 8.7 48 6.0 NNE 19 24 10 13 1019.4 1019.1 0.0
29/02:30am 19.9 17.0 9.5 51 5.6 NE 15 20 8 11 1019.9 1019.5 0.0
29/02:00am 19.4 17.0 9.9 54 5.1 NNE 13 17 7 9 1020.2 1019.8 0.0
29/01:30am 19.9 16.7 10.0 53 5.4 NNE 17 20 9 11 1020.5 1020.1 0.0
29/01:00am 19.3 16.5 10.0 55 5.0 NNE 15 19 8 10 1020.6 1020.2 0.0
29/12:30am 19.9 16.9 10.6 55 5.1 NNE 17 19 9 10 1020.7 1020.3 0.0
29/12:00am 19.6 16.6 10.6 56 4.9 NNE 17 17 9 9 1020.6 1020.2 0.0
 
Date/Time
EST
Temp
°C
App
Temp
°C
Dew
Point
Rel
Hum
%
Delta-T
°C
Wind Press
QNH
hPa
Press
MSL
hPa
Rain
since 9 am
mm
Dir
 
Spd
km/h
Gust
km/h
Spd
kts
Gust
kts
28/11:30pm 19.5 16.9 10.8 57 4.8 NNE 15 15 8 8 1020.6 1020.2 0.0
28/11:00pm 19.3 17.4 10.6 57 4.7 NE 11 13 6 7 1020.7 1020.3 0.0
28/10:30pm 20.2 17.7 11.1 56 5.0 NNE 15 17 8 9 1021.0 1020.6 0.0
28/10:00pm 20.2 17.3 10.9 55 5.1 NNE 17 19 9 10 1021.1 1020.7 0.0
28/09:30pm 21.2 18.9 11.8 55 5.3 NNE 15 17 8 9 1021.1 1020.7 0.0
28/09:00pm 20.4 18.3 11.1 55 5.1 NNE 13 15 7 8 1021.0 1020.6 0.0
28/08:30pm 20.5 18.5 11.4 56 5.1 NNE 13 13 7 7 1020.8 1020.4 0.0
28/08:00pm 21.1 19.2 10.6 51 5.8 NNE 11 13 6 7 1020.6 1020.2 0.0
28/07:30pm 21.1 19.5 10.3 50 5.9 NE 9 11 5 6 1020.4 1020.0 0.0
28/07:00pm 21.5 20.3 9.4 46 6.5 NE 6 7 3 4 1020.3 1019.9 0.0
28/06:30pm 22.2 20.7 9.0 43 7.1 NE 7 9 4 5 1020.0 1019.6 0.0
28/06:00pm 23.5 21.9 8.8 39 7.9 NE 7 9 4 5 1019.8 1019.4 0.0
28/05:30pm 24.8 22.8 8.7 36 8.7 N 9 13 5 7 1019.8 1019.4 0.0
28/05:00pm 26.1 23.0 9.0 34 9.4 N 15 19 8 10 1019.7 1019.3 0.0
28/04:30pm 26.4 23.3 8.8 33 9.7 N 15 20 8 11 1019.6 1019.2 0.0
28/04:00pm 26.5 22.6 8.5 32 9.8 N 19 24 10 13 1019.6 1019.2 0.0
28/03:30pm 26.8 23.2 8.3 31 10.1 N 17 22 9 12 1019.8 1019.4 0.0
28/03:00pm 27.0 23.0 8.4 31 10.1 NNW 19 28 10 15 1019.8 1019.4 0.0
28/02:30pm 27.8 23.6 8.1 29 10.8 N 20 30 11 16 1019.9 1019.5 0.0
28/02:00pm 27.6 23.5 8.0 29 10.7 NW 19 24 10 13 1020.0 1019.6 0.0
28/01:30pm 28.0 24.0 8.3 29 10.8 N 19 26 10 14 1020.5 1020.1 0.0
28/01:00pm 27.7 22.9 9.0 31 10.3 NNW 24 39 13 21 1020.9 1020.5 0.0
28/12:30pm 26.5 22.9 9.8 35 9.3 N 19 28 10 15 1021.4 1021.1 0.0
28/12:00pm 25.9 22.0 10.9 39 8.5 N 22 30 12 16 1021.9 1021.6 0.0
28/11:30am 25.4 21.6 11.2 41 8.1 N 22 33 12 18 1022.3 1022.0 0.0
28/11:00am 24.6 20.4 11.2 43 7.6 N 24 33 13 18 1022.6 1022.3 0.0
28/10:30am 24.1 19.7 11.8 46 7.0 N 26 35 14 19 1022.9 1022.6 0.0
28/10:00am 23.4 17.9 11.8 48 6.6 N 32 39 17 21 1023.0 1022.7 0.0
28/09:30am 22.8 17.1 11.8 50 6.2 N 33 43 18 23 1023.3 1023.0 0.0
28/09:00am 22.3 17.2 12.0 52 5.8 N 30 37 16 20 1023.2 1022.9 0.0
28/08:30am 21.2 16.3 11.2 53 5.6 N 28 35 15 19 1023.2 1022.9 0.0
28/08:00am 19.8 15.4 11.6 59 4.6 N 26 33 14 18 1022.9 1022.6 0.0
28/07:30am 18.6 15.2 11.2 62 4.1 NNE 20 28 11 15 1022.4 1022.1 0.0
28/07:00am 17.0 14.0 11.9 72 2.8 NNE 19 26 10 14 1022.3 1022.0 0.0
28/06:30am 14.7 12.6 9.7 72 2.6 NE 11 13 6 7 1021.9 1021.6 0.0
28/06:00am 16.2 14.0 10.7 70 2.9 NE 13 17 7 9 1021.8 1021.5 0.0
28/05:30am 15.5 13.9 10.1 70 2.9 NE 9 13 5 7 1022.1 1021.8 0.0
28/05:00am 14.5 12.6 8.9 69 2.9 ENE 9 11 5 6 1021.8 1021.5 0.0
28/04:30am 14.2 12.1 8.2 67 3.0 ENE 9 11 5 6 1021.7 1021.4 0.0
28/04:00am 14.5 12.7 7.8 64 3.3 ENE 7 9 4 5 1021.6 1021.3 0.0
28/03:30am 15.6 13.5 8.1 61 3.8 NE 9 13 5 7 1021.4 1021.1 0.0
28/03:00am 17.6 14.9 9.0 57 4.5 NE 13 17 7 9 1021.6 1021.3 0.0
28/02:30am 17.3 14.5 8.7 57 4.5 NNE 13 15 7 8 1021.8 1021.5 0.0
28/02:00am 17.3 14.5 8.7 57 4.5 NNE 13 15 7 8 1021.8 1021.5 0.0
28/01:30am 16.1 13.6 8.1 59 4.1 NNE 11 15 6 8 1022.0 1021.7 0.0
28/01:00am 16.2 15.0 7.9 58 4.2 NE 4 9 2 5 1021.7 1021.4 0.0
28/12:30am 17.3 14.8 8.4 56 4.6 NNE 11 13 6 7 1021.7 1021.4 0.0
28/12:00am 17.6 15.6 8.5 55 4.7 NNE 9 13 5 7 1021.5 1021.2 0.0
 
Date/Time
EST
Temp
°C
App
Temp
°C
Dew
Point
Rel
Hum
%
Delta-T
°C
Wind Press
QNH
hPa
Press
MSL
hPa
Rain
since 9 am
mm
Dir
 
Spd
km/h
Gust
km/h
Spd
kts
Gust
kts
27/11:30pm 17.4 14.5 8.3 55 4.7 N 13 13 7 7 1021.8 1021.5 0.0
27/11:00pm 18.0 15.8 8.0 52 5.1 NNE 9 13 5 7 1021.6 1021.3 0.0
27/10:30pm 19.0 16.5 8.4 50 5.5 NE 11 13 6 7 1021.8 1021.5 0.0
27/10:00pm 17.9 15.5 8.5 54 4.9 NNE 11 15 6 8 1022.0 1021.7 0.0
27/09:30pm 19.5 16.8 9.1 51 5.5 NE 13 15 7 8 1022.0 1021.7 0.0
27/09:00pm 18.1 16.1 8.7 54 4.9 NE 9 13 5 7 1022.0 1021.7 0.0
27/08:30pm 18.2 15.7 8.2 52 5.2 NE 11 15 6 8 1022.1 1021.8 0.0
27/08:00pm 18.0 15.9 8.3 53 5.0 NNE 9 11 5 6 1022.0 1021.7 0.0
27/07:30pm 18.8 16.3 8.2 50 5.5 NE 11 13 6 7 1021.9 1021.6 0.0
27/07:00pm 19.0 16.7 7.4 47 5.9 NE 9 11 5 6 1021.7 1021.4 0.0
27/06:30pm 20.2 17.6 7.6 44 6.5 NE 11 13 6 7 1021.5 1021.2 0.0
27/06:00pm 21.3 19.0 7.5 41 7.2 NNE 9 11 5 6 1021.5 1021.2 0.0
27/05:30pm 23.1 21.1 7.2 36 8.3 NNE 7 11 4 6 1021.2 1020.9 0.0
27/05:00pm 24.6 21.5 7.3 33 9.1 N 13 17 7 9 1020.9 1020.5 0.0
27/04:30pm 25.6 21.6 6.8 30 9.9 NNE 17 24 9 13 1021.0 1020.6 0.0
27/04:00pm 25.9 22.7 7.0 30 10.0 N 13 20 7 11 1021.1 1020.7 0.0
27/03:30pm 26.6 22.7 7.1 29 10.4 NNE 17 28 9 15 1021.0 1020.6 0.0
27/03:00pm 26.6 24.0 7.6 30 10.2 NE 11 17 6 9 1021.1 1020.7 0.0
27/02:30pm 27.3 23.7 8.2 30 10.4 NNW 17 28 9 15 1021.3 1021.0 0.0
27/02:00pm 26.7 23.4 8.2 31 10.0 N 15 24 8 13 1021.6 1021.3 0.0
27/01:30pm 25.4 21.5 8.8 35 9.1 NNE 19 26 10 14 1022.1 1021.8 0.0
27/01:00pm 25.8 21.9 9.6 36 9.0 N 20 30 11 16 1022.6 1022.3 0.0
27/12:30pm 25.0 20.4 9.7 38 8.5 N 24 32 13 17 1023.1 1022.8 0.0
27/12:00pm 25.1 21.0 10.2 39 8.3 N 22 33 12 18 1023.4 1023.1 0.0
27/11:30am 24.7 19.9 10.2 40 8.1 N 26 35 14 19 1024.1 1023.8 0.0
27/11:00am 24.1 18.9 10.4 42 7.6 N 28 35 15 19 1024.4 1024.1 0.0
27/10:30am 24.3 19.8 11.3 44 7.4 N 26 32 14 17 1024.7 1024.4 0.0
27/10:00am 22.1 16.0 10.3 47 6.5 N 33 44 18 24 1025.1 1024.7 0.0
27/09:30am 21.7 15.7 10.2 48 6.3 NNE 32 41 17 22 1025.6 1025.3 0.0
27/09:00am 21.0 16.5 10.2 50 5.9 NNE 24 33 13 18 1025.9 1025.6 0.0
27/08:30am 19.6 15.2 10.3 55 5.1 NNE 24 32 13 17 1026.0 1025.7 0.0
27/08:00am 18.7 14.7 10.5 59 4.4 NNE 22 30 12 16 1025.7 1025.4 0.0
27/07:30am 16.9 14.3 10.7 67 3.3 NE 15 19 8 10 1025.4 1025.0 0.0
27/07:00am 15.6 12.9 10.4 71 2.8 NE 15 20 8 11 1025.1 1024.7 0.0
27/06:30am 15.4 13.1 10.6 73 2.6 NE 13 19 7 10 1025.0 1024.6 0.0
27/06:00am 14.4 12.5 10.4 77 2.1 NE 11 15 6 8 1024.8 1024.5 0.0
27/05:30am 14.3 12.0 10.3 77 2.1 ENE 13 15 7 8 1024.7 1024.4 0.0
27/05:00am 13.6 11.8 9.5 76 2.1 ENE 9 13 5 7 1024.6 1024.3 0.0
27/04:30am 14.8 13.3 10.4 75 2.3 E 9 11 5 6 1024.4 1024.1 0.0
27/04:00am 15.2 13.2 10.0 71 2.7 E 11 15 6 8 1024.1 1023.8 0.0
27/03:30am 16.3 14.5 11.0 71 2.9 E 11 15 6 8 1024.0 1023.7 0.0
27/03:00am 16.0 14.5 10.5 70 2.9 E 9 13 5 7 1024.2 1023.9 0.0
27/02:30am 15.9 13.9 10.0 68 3.1 E 11 13 6 7 1024.2 1023.9 0.0
27/02:00am 16.4 14.7 10.0 66 3.4 E 9 11 5 6 1024.6 1024.3 0.0
27/01:30am 16.7 14.6 9.9 64 3.6 ENE 11 13 6 7 1024.6 1024.3 0.0
27/01:00am 16.5 13.8 9.0 61 3.9 ENE 13 17 7 9 1024.7 1024.4 0.0
27/12:30am 17.0 14.6 8.7 58 4.3 ENE 11 17 6 9 1024.8 1024.5 0.0
27/12:00am 18.6 15.3 9.4 55 4.9 NE 17 22 9 12 1025.0 1024.6 0.0
 
Date/Time
EST
Temp
°C
App
Temp
°C
Dew
Point
Rel
Hum
%
Delta-T
°C
Wind Press
QNH
hPa
Press
MSL
hPa
Rain
since 9 am
mm
Dir
 
Spd
km/h
Gust
km/h
Spd
kts
Gust
kts
26/11:30pm 18.9 15.2 9.4 54 5.1 NE 19 26 10 14 1024.8 1024.5 0.0
26/11:11pm 18.3 16.1 10.9 62 4.0 NE 13 22 7 12 1024.8 1024.5 0.0
26/11:00pm 13.3 10.5 5.2 58 3.8 NE 9 11 5 6 1025.0 1024.6 0.0
26/10:30pm 13.6 11.1 4.7 55 4.2 ENE 7 9 4 5 1025.1 1024.7 0.0
26/10:00pm 13.4 11.4 4.3 54 4.2 ENE 4 7 2 4 1025.1 1024.7 0.0
26/09:30pm 14.1 11.5 4.4 52 4.5 E 7 9 4 5 1025.1 1024.7 0.0
26/09:00pm 14.9 12.6 4.6 50 4.8 ENE 6 9 3 5 1025.1 1024.7 0.0
26/08:30pm 16.1 13.1 4.2 45 5.6 ENE 9 11 5 6 1025.2 1024.8 0.0
26/08:00pm 18.1 14.9 5.3 43 6.2 ENE 11 11 6 6 1025.0 1024.6 0.0
26/07:30pm 17.7 14.6 5.6 45 5.9 ESE 11 13 6 7 1025.1 1024.7 0.0
26/07:00pm 17.8 16.5 4.0 40 6.5 CALM 0 6 0 3 1024.7 1024.4 0.0
26/06:30pm 19.6 18.4 4.5 37 7.3 CALM 0 0 0 0 1024.4 1024.1 0.0
26/06:00pm 22.4 20.1 4.9 32 8.7 ENE 6 9 3 5 1024.3 1024.0 0.0
26/05:30pm 24.0 21.1 4.9 29 9.6 ENE 9 13 5 7 1024.2 1023.9 0.0
26/05:00pm 25.4 21.9 5.6 28 10.2 ENE 13 19 7 10 1024.2 1023.9 0.0
26/04:30pm 25.8 23.3 6.4 29 10.2 E 9 15 5 8 1024.2 1023.9 0.0
26/04:00pm 26.1 22.4 6.2 28 10.4 E 15 24 8 13 1024.2 1023.9 0.0
26/03:30pm 26.1 23.5 6.2 28 10.4 E 9 20 5 11 1024.3 1024.0 0.0
26/03:00pm 26.5 24.6 6.5 28 10.5 NNE 6 9 3 5 1024.5 1024.2 0.0
26/02:30pm 26.5 24.8 7.5 30 10.2 NW 6 11 3 6 1024.8 1024.5 0.0

Other Formats:

Comma delimited format used in spreadsheet applications
http://www.bom.gov.au/fwo/IDN60801/IDN60801.95708.axf

JavaScript Object Notation format (JSON) in row-major order
http://www.bom.gov.au/fwo/IDN60801/IDN60801.95708.json